Terminal Aerodrome Forecast
Issued by NWS Cleveland, OH

Home | Current Version | Previous Version | Graphics & Text | Print | Product List | Glossary On
Versions: 1 2 3 4 5 6 7 8 9 10 11 12 13 14 15 16 17 18 19
000
FTUS41 KCLE 300532
TAFTOL
TAF
KTOL 300532Z 3006/3106 20008KT P6SM SCT060 BKN150
     FM301400 22010KT P6SM BKN050 OVC120
     FM301700 24010KT 6SM -TSRA OVC040CB
     FM302300 33011KT 4SM -TSRA BR OVC035CB
     FM310200 03014KT 3SM -SHRA BR OVC015=

USA.gov is the U.S. government's official web portal to all federal, state and local government web resources and services.